Time,TemperatureF,DewpointF,PressureIn,WindDirection,WindDirectionDegrees,WindSpeedMPH,WindSpeedGustMPH,Humidity,HourlyPrecipIn,Conditions,Clouds,dailyrainin,SoftwareType,DateUTC
2013-01-15 00:02:00,27.5,26.0,30.58,ENE,59,0.0,-999.0,92,-99.99,,,0.00,weatherlink.com 1.10,2013-01-15 08:02:00,
2013-01-15 00:17:00,27.6,26.0,30.58,ENE,59,0.0,-999.0,92,-99.99,,,0.00,weatherlink.com 1.10,2013-01-15 08:17:00,
2013-01-15 00:33:00,27.4,25.0,30.57,ENE,59,0.0,-999.0,92,-99.99,,,0.00,weatherlink.com 1.10,2013-01-15 08:33:00,
2013-01-15 00:47:00,27.4,25.0,30.58,ENE,59,0.0,-999.0,92,-99.99,,,0.00,weatherlink.com 1.10,2013-01-15 08:47:00,
2013-01-15 01:18:00,27.6,26.0,30.59,ENE,59,0.0,-999.0,92,-99.99,,,0.00,weatherlink.com 1.10,2013-01-15 09:18:00,
2013-01-15 01:33:00,27.4,25.0,30.59,ENE,59,0.0,-999.0,91,-99.99,,,0.00,weatherlink.com 1.10,2013-01-15 09:33:00,
2013-01-15 01:48:00,27.6,26.0,30.60,ENE,59,0.0,-999.0,92,-99.99,,,0.00,weatherlink.com 1.10,2013-01-15 09:48:00,
2013-01-15 02:03:00,27.6,26.0,30.61,ENE,59,0.0,-999.0,92,-99.99,,,0.00,weatherlink.com 1.10,2013-01-15 10:03:00,
2013-01-15 02:18:00,27.6,26.0,30.61,ENE,59,0.0,-999.0,92,-99.99,,,0.00,weatherlink.com 1.10,2013-01-15 10:18:00,
2013-01-15 02:33:00,27.6,26.0,30.61,ENE,59,0.0,-999.0,92,-99.99,,,0.00,weatherlink.com 1.10,2013-01-15 10:33:00,
2013-01-15 02:48:00,27.6,26.0,30.61,ENE,59,0.0,-999.0,92,-99.99,,,0.00,weatherlink.com 1.10,2013-01-15 10:48:00,
2013-01-15 03:03:00,27.5,26.0,30.61,ENE,59,0.0,-999.0,92,-99.99,,,0.00,weatherlink.com 1.10,2013-01-15 11:03:00,
2013-01-15 03:18:00,27.6,26.0,30.61,ENE,59,0.0,-999.0,92,-99.99,,,0.00,weatherlink.com 1.10,2013-01-15 11:18:00,
2013-01-15 03:33:00,27.7,26.0,30.60,ENE,59,0.0,-999.0,92,-99.99,,,0.00,weatherlink.com 1.10,2013-01-15 11:33:00,
2013-01-15 03:48:00,27.6,26.0,30.60,ENE,59,0.0,-999.0,92,-99.99,,,0.00,weatherlink.com 1.10,2013-01-15 11:48:00,
2013-01-15 04:03:00,27.5,26.0,30.60,ENE,59,0.0,-999.0,92,-99.99,,,0.00,weatherlink.com 1.10,2013-01-15 12:03:00,
2013-01-15 04:18:00,27.7,26.0,30.61,ENE,59,0.0,-999.0,92,-99.99,,,0.00,weatherlink.com 1.10,2013-01-15 12:18:00,
2013-01-15 04:33:00,27.7,26.0,30.61,ENE,59,0.0,-999.0,92,-99.99,,,0.00,weatherlink.com 1.10,2013-01-15 12:33:00,
2013-01-15 04:48:00,27.7,26.0,30.61,ENE,59,0.0,-999.0,92,-99.99,,,0.00,weatherlink.com 1.10,2013-01-15 12:48:00,
2013-01-15 05:03:00,27.6,26.0,30.61,ENE,59,0.0,-999.0,92,-99.99,,,0.00,weatherlink.com 1.10,2013-01-15 13:03:00,
2013-01-15 05:18:00,27.7,26.0,30.62,ENE,59,0.0,-999.0,92,-99.99,,,0.00,weatherlink.com 1.10,2013-01-15 13:18:00,
2013-01-15 05:33:00,27.8,26.0,30.62,ENE,59,0.0,-999.0,92,-99.99,,,0.00,weatherlink.com 1.10,2013-01-15 13:33:00,
2013-01-15 05:48:00,27.8,26.0,30.62,ENE,59,0.0,-999.0,92,-99.99,,,0.00,weatherlink.com 1.10,2013-01-15 13:48:00,
2013-01-15 06:03:00,27.8,26.0,30.62,ENE,59,0.0,-999.0,92,-99.99,,,0.00,weatherlink.com 1.10,2013-01-15 14:03:00,
2013-01-15 06:18:00,27.8,26.0,30.64,ENE,59,0.0,-999.0,92,-99.99,,,0.00,weatherlink.com 1.10,2013-01-15 14:18:00,
2013-01-15 06:33:00,27.8,26.0,30.64,ENE,59,0.0,-999.0,92,-99.99,,,0.00,weatherlink.com 1.10,2013-01-15 14:33:00,
2013-01-15 06:48:00,28.1,26.0,30.64,ENE,59,0.0,-999.0,92,-99.99,,,0.00,weatherlink.com 1.10,2013-01-15 14:48:00,
2013-01-15 07:03:00,28.0,26.0,30.65,ENE,59,0.0,-999.0,92,-99.99,,,0.00,weatherlink.com 1.10,2013-01-15 15:03:00,
2013-01-15 07:18:00,28.0,26.0,30.65,ENE,59,0.0,-999.0,92,-99.99,,,0.00,weatherlink.com 1.10,2013-01-15 15:18:00,
2013-01-15 07:33:00,28.1,26.0,30.66,ENE,59,0.0,-999.0,92,-99.99,,,0.00,weatherlink.com 1.10,2013-01-15 15:33:00,
2013-01-15 07:48:00,28.3,26.0,30.67,ENE,59,0.0,-999.0,92,-99.99,,,0.00,weatherlink.com 1.10,2013-01-15 15:48:00,
2013-01-15 08:03:00,28.5,27.0,30.67,ENE,59,0.0,-999.0,92,-99.99,,,0.00,weatherlink.com 1.10,2013-01-15 16:03:00,
2013-01-15 08:18:00,28.5,27.0,30.68,ENE,59,0.0,-999.0,92,-99.99,,,0.00,weatherlink.com 1.10,2013-01-15 16:18:00,
2013-01-15 08:33:00,28.5,27.0,30.69,ENE,59,0.0,-999.0,92,-99.99,,,0.00,weatherlink.com 1.10,2013-01-15 16:33:00,
2013-01-15 08:48:00,28.7,27.0,30.69,ENE,59,0.0,-999.0,92,-99.99,,,0.00,weatherlink.com 1.10,2013-01-15 16:48:00,
2013-01-15 09:03:00,29.0,27.0,30.70,ENE,59,0.0,-999.0,91,-99.99,,,0.00,weatherlink.com 1.10,2013-01-15 17:03:00,
2013-01-15 09:18:00,29.1,27.0,30.69,ENE,59,1.0,-999.0,91,-99.99,,,0.00,weatherlink.com 1.10,2013-01-15 17:18:00,
2013-01-15 09:33:00,29.3,27.0,30.69,ENE,59,0.0,-999.0,90,-99.99,,,0.00,weatherlink.com 1.10,2013-01-15 17:33:00,
2013-01-15 09:48:00,30.8,27.0,30.69,ENE,59,0.0,-999.0,87,-99.99,,,0.00,weatherlink.com 1.10,2013-01-15 17:48:00,
2013-01-15 10:03:00,31.6,28.0,30.70,ENE,59,0.0,-999.0,85,-99.99,,,0.00,weatherlink.com 1.10,2013-01-15 18:03:00,
2013-01-15 10:18:00,32.1,28.0,30.70,ENE,59,1.0,-999.0,85,-99.99,,,0.00,weatherlink.com 1.10,2013-01-15 18:18:00,
2013-01-15 10:34:00,33.2,29.0,30.70,ENE,59,1.0,-999.0,83,-99.99,,,0.02,weatherlink.com 1.10,2013-01-15 18:34:00,
2013-01-15 10:48:00,34.2,29.0,30.69,ENE,59,1.0,-999.0,80,-99.99,,,0.03,weatherlink.com 1.10,2013-01-15 18:48:00,
2013-01-15 11:04:00,34.8,29.0,30.68,ENE,59,1.0,-999.0,78,-99.99,,,0.04,weatherlink.com 1.10,2013-01-15 19:04:00,
2013-01-15 11:19:00,35.6,29.0,30.69,ENE,59,0.0,-999.0,76,-99.99,,,0.05,weatherlink.com 1.10,2013-01-15 19:19:00,
2013-01-15 11:34:00,35.7,29.0,30.69,ENE,59,0.0,-999.0,75,-99.99,,,0.06,weatherlink.com 1.10,2013-01-15 19:34:00,
2013-01-15 11:49:00,35.0,28.0,30.69,NE,55,0.0,-999.0,77,-99.99,,,0.07,weatherlink.com 1.10,2013-01-15 19:49:00,
2013-01-15 12:04:00,34.9,28.0,30.68,NW,311,0.0,-999.0,76,-99.99,,,0.08,weatherlink.com 1.10,2013-01-15 20:04:00,
2013-01-15 12:19:00,35.5,28.0,30.68,NW,311,0.0,-999.0,75,-99.99,,,0.08,weatherlink.com 1.10,2013-01-15 20:19:00,
2013-01-15 12:34:00,35.7,27.0,30.68,NW,311,0.0,-999.0,72,-99.99,,,0.08,weatherlink.com 1.10,2013-01-15 20:34:00,
2013-01-15 12:49:00,36.4,28.0,30.68,NW,311,0.0,-999.0,72,-99.99,,,0.09,weatherlink.com 1.10,2013-01-15 20:49:00,
2013-01-15 13:04:00,36.5,29.0,30.68,WSW,254,0.0,-999.0,73,-99.99,,,0.10,weatherlink.com 1.10,2013-01-15 21:04:00,
2013-01-15 13:19:00,36.7,28.0,30.67,SW,219,0.0,-999.0,71,-99.99,,,0.10,weatherlink.com 1.10,2013-01-15 21:19:00,
2013-01-15 13:34:00,36.7,28.0,30.67,SSE,157,0.0,-999.0,71,-99.99,,,0.10,weatherlink.com 1.10,2013-01-15 21:34:00,
2013-01-15 13:49:00,36.7,28.0,30.68,SSE,148,0.0,-999.0,71,-99.99,,,0.11,weatherlink.com 1.10,2013-01-15 21:49:00,
2013-01-15 14:04:00,36.8,29.0,30.68,SSE,148,0.0,-999.0,72,-99.99,,,0.11,weatherlink.com 1.10,2013-01-15 22:04:00,
2013-01-15 14:19:00,36.9,28.0,30.68,SSE,148,0.0,-999.0,71,-99.99,,,0.11,weatherlink.com 1.10,2013-01-15 22:19:00,
2013-01-15 14:34:00,37.1,28.0,30.68,SSE,148,1.0,-999.0,70,-99.99,,,0.11,weatherlink.com 1.10,2013-01-15 22:34:00,
2013-01-15 14:49:00,37.5,28.0,30.68,SSE,148,0.0,-999.0,69,-99.99,,,0.11,weatherlink.com 1.10,2013-01-15 22:49:00,
2013-01-15 15:04:00,37.2,28.0,30.68,SSE,148,0.0,-999.0,69,-99.99,,,0.11,weatherlink.com 1.10,2013-01-15 23:04:00,
2013-01-15 15:19:00,36.2,30.0,30.68,SSE,148,1.0,-999.0,77,-99.99,,,0.11,weatherlink.com 1.10,2013-01-15 23:19:00,
2013-01-15 15:34:00,35.0,30.0,30.68,SSE,148,0.0,-999.0,81,-99.99,,,0.11,weatherlink.com 1.10,2013-01-15 23:34:00,
2013-01-15 15:49:00,33.9,30.0,30.68,SSE,148,0.0,-999.0,84,-99.99,,,0.11,weatherlink.com 1.10,2013-01-15 23:49:00,
2013-01-15 16:04:00,33.4,29.0,30.68,SSE,148,0.0,-999.0,85,-99.99,,,0.11,weatherlink.com 1.10,2013-01-16 00:04:00,
2013-01-15 16:19:00,32.9,29.0,30.68,SSE,148,0.0,-999.0,86,-99.99,,,0.11,weatherlink.com 1.10,2013-01-16 00:19:00,
2013-01-15 16:34:00,32.4,29.0,30.68,SSE,148,0.0,-999.0,86,-99.99,,,0.11,weatherlink.com 1.10,2013-01-16 00:34:00,
2013-01-15 16:49:00,31.8,28.0,30.68,SSE,148,0.0,-999.0,87,-99.99,,,0.11,weatherlink.com 1.10,2013-01-16 00:49:00,
2013-01-15 17:04:00,31.1,28.0,30.68,SSE,148,0.0,-999.0,88,-99.99,,,0.11,weatherlink.com 1.10,2013-01-16 01:04:00,
2013-01-15 17:19:00,30.6,28.0,30.69,SSE,148,0.0,-999.0,89,-99.99,,,0.11,weatherlink.com 1.10,2013-01-16 01:19:00,
2013-01-15 17:34:00,30.2,28.0,30.69,SSE,148,0.0,-999.0,90,-99.99,,,0.11,weatherlink.com 1.10,2013-01-16 01:34:00,
2013-01-15 17:49:00,29.9,27.0,30.68,SSE,148,0.0,-999.0,90,-99.99,,,0.11,weatherlink.com 1.10,2013-01-16 01:49:00,
2013-01-15 18:04:00,29.8,28.0,30.69,SSE,148,0.0,-999.0,91,-99.99,,,0.11,weatherlink.com 1.10,2013-01-16 02:04:00,
2013-01-15 18:19:00,29.8,28.0,30.70,SSE,148,0.0,-999.0,91,-99.99,,,0.11,weatherlink.com 1.10,2013-01-16 02:19:00,
2013-01-15 18:34:00,29.6,27.0,30.69,SSE,148,0.0,-999.0,91,-99.99,,,0.11,weatherlink.com 1.10,2013-01-16 02:34:00,
2013-01-15 18:49:00,29.3,27.0,30.70,SSE,148,0.0,-999.0,91,-99.99,,,0.11,weatherlink.com 1.10,2013-01-16 02:49:00,
2013-01-15 19:04:00,29.1,27.0,30.70,SSE,148,0.0,-999.0,91,-99.99,,,0.11,weatherlink.com 1.10,2013-01-16 03:04:00,
2013-01-15 19:19:00,28.9,27.0,30.70,SSE,148,0.0,-999.0,91,-99.99,,,0.11,weatherlink.com 1.10,2013-01-16 03:19:00,
2013-01-15 19:34:00,28.9,27.0,30.70,SSE,148,0.0,-999.0,92,-99.99,,,0.00,weatherlink.com 1.10,2013-01-16 03:34:00,
2013-01-15 19:49:00,28.7,26.0,30.70,SSE,148,0.0,-999.0,91,-99.99,,,0.00,weatherlink.com 1.10,2013-01-16 03:49:00,
2013-01-15 20:04:00,28.6,26.0,30.69,SE,125,0.0,-999.0,91,-99.99,,,0.00,weatherlink.com 1.10,2013-01-16 04:04:00,
2013-01-15 20:19:00,28.2,26.0,30.70,SE,125,0.0,-999.0,91,-99.99,,,0.00,weatherlink.com 1.10,2013-01-16 04:19:00,
2013-01-15 20:34:00,28.1,26.0,30.70,SE,125,0.0,-999.0,91,-99.99,,,0.00,weatherlink.com 1.10,2013-01-16 04:34:00,
2013-01-15 20:49:00,27.9,25.0,30.70,SE,125,0.0,-999.0,90,-99.99,,,0.00,weatherlink.com 1.10,2013-01-16 04:49:00,
2013-01-15 21:04:00,27.9,25.0,30.70,SE,125,0.0,-999.0,90,-99.99,,,0.00,weatherlink.com 1.10,2013-01-16 05:04:00,
2013-01-15 21:19:00,28.1,26.0,30.70,SE,125,0.0,-999.0,90,-99.99,,,0.00,weatherlink.com 1.10,2013-01-16 05:19:00,
2013-01-15 21:34:00,28.3,26.0,30.69,SE,125,0.0,-999.0,91,-99.99,,,0.00,weatherlink.com 1.10,2013-01-16 05:34:00,
2013-01-15 21:49:00,28.5,26.0,30.69,SE,125,0.0,-999.0,90,-99.99,,,0.00,weatherlink.com 1.10,2013-01-16 05:49:00,
2013-01-15 22:04:00,28.7,26.0,30.69,SE,125,0.0,-999.0,90,-99.99,,,0.00,weatherlink.com 1.10,2013-01-16 06:04:00,
2013-01-15 22:19:00,28.8,26.0,30.69,ESE,123,0.0,-999.0,89,-99.99,,,0.00,weatherlink.com 1.10,2013-01-16 06:19:00,
2013-01-15 22:34:00,29.0,26.0,30.69,ESE,122,0.0,-999.0,89,-99.99,,,0.00,weatherlink.com 1.10,2013-01-16 06:34:00,
2013-01-15 22:49:00,29.3,27.0,30.69,ESE,122,0.0,-999.0,90,-99.99,,,0.00,weatherlink.com 1.10,2013-01-16 06:49:00,
2013-01-15 23:04:00,29.4,27.0,30.68,ESE,122,0.0,-999.0,89,-99.99,,,0.00,weatherlink.com 1.10,2013-01-16 07:04:00,
2013-01-15 23:19:00,29.1,26.0,30.68,ESE,122,0.0,-999.0,89,-99.99,,,0.00,weatherlink.com 1.10,2013-01-16 07:19:00,
2013-01-15 23:34:00,29.1,26.0,30.68,ESE,122,0.0,-999.0,89,-99.99,,,0.00,weatherlink.com 1.10,2013-01-16 07:34:00,
2013-01-15 23:49:00,29.2,26.0,30.68,SE,128,0.0,-999.0,89,-99.99,,,0.00,weatherlink.com 1.10,2013-01-16 07:49:00,